sensor_id;sensor_type;location;lat;lon;timestamp;temperature;humidity
24176;DHT22;12324;48.146;11.502;2024-03-25T00:01:36;3.50;99.90
24176;DHT22;12324;48.146;11.502;2024-03-25T00:04:02;3.60;99.90
24176;DHT22;12324;48.146;11.502;2024-03-25T00:06:28;3.60;99.90
24176;DHT22;12324;48.146;11.502;2024-03-25T00:08:54;3.60;99.90
24176;DHT22;12324;48.146;11.502;2024-03-25T00:11:20;3.60;99.90
24176;DHT22;12324;48.146;11.502;2024-03-25T00:13:46;3.60;99.90
24176;DHT22;12324;48.146;11.502;2024-03-25T00:16:12;3.60;99.90
24176;DHT22;12324;48.146;11.502;2024-03-25T00:18:37;3.60;99.90
24176;DHT22;12324;48.146;11.502;2024-03-25T00:21:03;3.60;99.90
24176;DHT22;12324;48.146;11.502;2024-03-25T00:23:29;3.60;99.90
24176;DHT22;12324;48.146;11.502;2024-03-25T00:25:55;3.60;99.90
24176;DHT22;12324;48.146;11.502;2024-03-25T00:28:21;3.60;99.90
24176;DHT22;12324;48.146;11.502;2024-03-25T00:30:47;3.60;99.90
24176;DHT22;12324;48.146;11.502;2024-03-25T00:33:13;3.60;99.90
24176;DHT22;12324;48.146;11.502;2024-03-25T00:35:39;3.60;99.90
24176;DHT22;12324;48.146;11.502;2024-03-25T00:38:05;3.60;99.90
24176;DHT22;12324;48.146;11.502;2024-03-25T00:40:32;3.60;99.90
24176;DHT22;12324;48.146;11.502;2024-03-25T00:43:00;3.60;99.90
24176;DHT22;12324;48.146;11.502;2024-03-25T00:45:25;3.60;99.90
24176;DHT22;12324;48.146;11.502;2024-03-25T00:47:59;3.50;99.90
24176;DHT22;12324;48.146;11.502;2024-03-25T00:50:26;3.50;99.90
24176;DHT22;12324;48.146;11.502;2024-03-25T00:52:52;3.50;99.90
24176;DHT22;12324;48.146;11.502;2024-03-25T00:55:17;3.50;99.90
24176;DHT22;12324;48.146;11.502;2024-03-25T00:57:43;3.40;99.90
24176;DHT22;12324;48.146;11.502;2024-03-25T01:00:10;3.40;99.90
24176;DHT22;12324;48.146;11.502;2024-03-25T01:02:36;3.40;99.90
24176;DHT22;12324;48.146;11.502;2024-03-25T01:05:04;3.40;99.90
24176;DHT22;12324;48.146;11.502;2024-03-25T01:07:31;3.40;99.90
24176;DHT22;12324;48.146;11.502;2024-03-25T01:09:57;3.40;99.90
24176;DHT22;12324;48.146;11.502;2024-03-25T01:12:24;3.40;99.90
24176;DHT22;12324;48.146;11.502;2024-03-25T01:14:51;3.40;99.90
24176;DHT22;12324;48.146;11.502;2024-03-25T01:17:17;3.30;99.90
24176;DHT22;12324;48.146;11.502;2024-03-25T01:19:43;3.40;99.90
24176;DHT22;12324;48.146;11.502;2024-03-25T01:22:09;3.40;99.90
24176;DHT22;12324;48.146;11.502;2024-03-25T01:24:35;3.30;99.90
24176;DHT22;12324;48.146;11.502;2024-03-25T01:27:01;3.30;99.90
24176;DHT22;12324;48.146;11.502;2024-03-25T01:29:27;3.30;99.90
24176;DHT22;12324;48.146;11.502;2024-03-25T01:31:53;3.30;99.90
24176;DHT22;12324;48.146;11.502;2024-03-25T01:34:19;3.20;99.90
24176;DHT22;12324;48.146;11.502;2024-03-25T01:36:45;3.30;99.90
24176;DHT22;12324;48.146;11.502;2024-03-25T01:39:11;3.20;99.90
24176;DHT22;12324;48.146;11.502;2024-03-25T01:41:37;3.30;99.90
24176;DHT22;12324;48.146;11.502;2024-03-25T01:44:03;3.20;99.90
24176;DHT22;12324;48.146;11.502;2024-03-25T01:46:29;3.20;99.90
24176;DHT22;12324;48.146;11.502;2024-03-25T01:48:55;3.20;99.90
24176;DHT22;12324;48.146;11.502;2024-03-25T01:51:24;3.20;99.90
24176;DHT22;12324;48.146;11.502;2024-03-25T01:53:52;3.20;99.90
24176;DHT22;12324;48.146;11.502;2024-03-25T01:56:19;3.20;99.90
24176;DHT22;12324;48.146;11.502;2024-03-25T01:58:46;3.20;99.90
24176;DHT22;12324;48.146;11.502;2024-03-25T02:01:12;3.20;99.90
24176;DHT22;12324;48.146;11.502;2024-03-25T02:03:45;3.20;99.90
24176;DHT22;12324;48.146;11.502;2024-03-25T02:06:14;3.20;99.90
24176;DHT22;12324;48.146;11.502;2024-03-25T02:08:41;3.10;99.90
24176;DHT22;12324;48.146;11.502;2024-03-25T02:11:07;3.10;99.90
24176;DHT22;12324;48.146;11.502;2024-03-25T02:13:35;3.10;99.90
24176;DHT22;12324;48.146;11.502;2024-03-25T02:16:02;3.10;99.90
24176;DHT22;12324;48.146;11.502;2024-03-25T02:18:28;3.10;99.90
24176;DHT22;12324;48.146;11.502;2024-03-25T02:20:54;3.10;99.90
24176;DHT22;12324;48.146;11.502;2024-03-25T02:23:20;3.10;99.90
24176;DHT22;12324;48.146;11.502;2024-03-25T02:25:52;3.10;99.90
24176;DHT22;12324;48.146;11.502;2024-03-25T02:28:19;3.10;99.90
24176;DHT22;12324;48.146;11.502;2024-03-25T02:30:45;3.10;99.90
24176;DHT22;12324;48.146;11.502;2024-03-25T02:33:11;3.10;99.90
24176;DHT22;12324;48.146;11.502;2024-03-25T02:35:38;3.10;99.90
24176;DHT22;12324;48.146;11.502;2024-03-25T02:38:05;3.20;99.90
24176;DHT22;12324;48.146;11.502;2024-03-25T02:40:31;3.20;99.90
24176;DHT22;12324;48.146;11.502;2024-03-25T02:42:58;3.10;99.90
24176;DHT22;12324;48.146;11.502;2024-03-25T02:45:24;3.10;99.90
24176;DHT22;12324;48.146;11.502;2024-03-25T02:47:51;3.10;99.90
24176;DHT22;12324;48.146;11.502;2024-03-25T02:50:17;3.10;99.90
24176;DHT22;12324;48.146;11.502;2024-03-25T02:52:43;3.20;99.90
24176;DHT22;12324;48.146;11.502;2024-03-25T02:55:09;3.20;99.90
24176;DHT22;12324;48.146;11.502;2024-03-25T02:57:35;3.20;99.90
24176;DHT22;12324;48.146;11.502;2024-03-25T03:00:01;3.20;99.90
24176;DHT22;12324;48.146;11.502;2024-03-25T03:02:27;3.20;99.90
24176;DHT22;12324;48.146;11.502;2024-03-25T03:04:53;3.20;99.90
24176;DHT22;12324;48.146;11.502;2024-03-25T03:07:19;3.20;99.90
24176;DHT22;12324;48.146;11.502;2024-03-25T03:09:45;3.20;99.90
24176;DHT22;12324;48.146;11.502;2024-03-25T03:12:11;3.20;99.90
24176;DHT22;12324;48.146;11.502;2024-03-25T03:14:37;3.20;99.90
24176;DHT22;12324;48.146;11.502;2024-03-25T03:17:03;3.20;99.90
24176;DHT22;12324;48.146;11.502;2024-03-25T03:19:30;3.20;99.90
24176;DHT22;12324;48.146;11.502;2024-03-25T03:21:57;3.20;99.90
24176;DHT22;12324;48.146;11.502;2024-03-25T03:24:23;3.20;99.90
24176;DHT22;12324;48.146;11.502;2024-03-25T03:26:49;3.20;99.90
24176;DHT22;12324;48.146;11.502;2024-03-25T03:29:15;3.20;99.90
24176;DHT22;12324;48.146;11.502;2024-03-25T03:31:41;3.10;99.90
24176;DHT22;12324;48.146;11.502;2024-03-25T03:34:07;3.10;99.90
24176;DHT22;12324;48.146;11.502;2024-03-25T03:36:33;3.10;99.90
24176;DHT22;12324;48.146;11.502;2024-03-25T03:38:59;3.10;99.90
24176;DHT22;12324;48.146;11.502;2024-03-25T03:41:24;3.10;99.90
24176;DHT22;12324;48.146;11.502;2024-03-25T03:43:50;3.00;99.90
24176;DHT22;12324;48.146;11.502;2024-03-25T03:46:16;3.00;99.90
24176;DHT22;12324;48.146;11.502;2024-03-25T03:48:42;2.90;99.90
24176;DHT22;12324;48.146;11.502;2024-03-25T03:51:08;2.80;99.90
24176;DHT22;12324;48.146;11.502;2024-03-25T03:53:35;2.80;99.90
24176;DHT22;12324;48.146;11.502;2024-03-25T03:56:03;2.70;99.90
24176;DHT22;12324;48.146;11.502;2024-03-25T03:58:33;2.60;99.90
24176;DHT22;12324;48.146;11.502;2024-03-25T04:01:00;2.60;99.90
24176;DHT22;12324;48.146;11.502;2024-03-25T04:03:26;2.50;99.90
24176;DHT22;12324;48.146;11.502;2024-03-25T04:05:52;2.50;99.90
24176;DHT22;12324;48.146;11.502;2024-03-25T06:33:02;2.50;99.90
24176;DHT22;12324;48.146;11.502;2024-03-25T06:35:46;3.50;99.90
24176;DHT22;12324;48.146;11.502;2024-03-25T06:38:12;3.60;99.90
24176;DHT22;12324;48.146;11.502;2024-03-25T10:09:53;3.70;99.90
24176;DHT22;12324;48.146;11.502;2024-03-25T10:12:19;9.10;87.40
24176;DHT22;12324;48.146;11.502;2024-03-25T10:14:45;9.00;81.50
24176;DHT22;12324;48.146;11.502;2024-03-25T10:17:11;8.90;84.90
24176;DHT22;12324;48.146;11.502;2024-03-25T10:19:37;9.10;82.20
24176;DHT22;12324;48.146;11.502;2024-03-25T10:22:09;9.20;78.40
24176;DHT22;12324;48.146;11.502;2024-03-25T12:21:07;9.50;77.60
24176;DHT22;12324;48.146;11.502;2024-03-25T12:23:34;11.40;65.10
24176;DHT22;12324;48.146;11.502;2024-03-25T12:26:01;11.30;65.70
24176;DHT22;12324;48.146;11.502;2024-03-25T12:28:28;10.90;63.90
24176;DHT22;12324;48.146;11.502;2024-03-25T12:30:55;11.40;64.90
24176;DHT22;12324;48.146;11.502;2024-03-25T12:33:24;11.10;55.40
24176;DHT22;12324;48.146;11.502;2024-03-25T12:35:51;10.80;55.60
24176;DHT22;12324;48.146;11.502;2024-03-25T12:38:28;11.00;55.00
24176;DHT22;12324;48.146;11.502;2024-03-25T12:41:03;10.80;56.10
24176;DHT22;12324;48.146;11.502;2024-03-25T12:43:32;10.70;56.50
24176;DHT22;12324;48.146;11.502;2024-03-25T12:45:58;10.90;57.10
24176;DHT22;12324;48.146;11.502;2024-03-25T12:48:25;11.40;57.50
24176;DHT22;12324;48.146;11.502;2024-03-25T12:50:51;11.90;57.40
24176;DHT22;12324;48.146;11.502;2024-03-25T12:53:18;11.40;56.60
24176;DHT22;12324;48.146;11.502;2024-03-25T12:55:48;11.60;56.90
24176;DHT22;12324;48.146;11.502;2024-03-25T12:58:14;11.50;56.80
24176;DHT22;12324;48.146;11.502;2024-03-25T13:00:40;11.30;55.70
24176;DHT22;12324;48.146;11.502;2024-03-25T13:03:07;11.90;57.70
24176;DHT22;12324;48.146;11.502;2024-03-25T13:27:33;12.00;52.50
24176;DHT22;12324;48.146;11.502;2024-03-25T13:29:59;12.60;49.20
24176;DHT22;12324;48.146;11.502;2024-03-25T13:32:25;12.50;50.60
24176;DHT22;12324;48.146;11.502;2024-03-25T14:09:06;15.70;40.20
24176;DHT22;12324;48.146;11.502;2024-03-25T14:11:35;15.60;41.90
24176;DHT22;12324;48.146;11.502;2024-03-25T14:14:02;14.70;41.00
24176;DHT22;12324;48.146;11.502;2024-03-25T14:18:56;15.60;40.00
24176;DHT22;12324;48.146;11.502;2024-03-25T14:21:22;15.30;39.70
24176;DHT22;12324;48.146;11.502;2024-03-25T14:23:48;14.30;40.50
24176;DHT22;12324;48.146;11.502;2024-03-25T14:28:41;15.20;40.60
24176;DHT22;12324;48.146;11.502;2024-03-25T14:31:07;16.80;36.00
24176;DHT22;12324;48.146;11.502;2024-03-25T14:33:32;15.80;38.00
24176;DHT22;12324;48.146;11.502;2024-03-25T14:35:58;16.60;37.60
24176;DHT22;12324;48.146;11.502;2024-03-25T14:38:24;16.40;36.20
24176;DHT22;12324;48.146;11.502;2024-03-25T14:40:51;16.00;35.30
24176;DHT22;12324;48.146;11.502;2024-03-25T14:43:18;15.90;36.30
24176;DHT22;12324;48.146;11.502;2024-03-25T14:45:46;17.80;35.70
24176;DHT22;12324;48.146;11.502;2024-03-25T14:48:12;17.70;35.90
24176;DHT22;12324;48.146;11.502;2024-03-25T14:50:44;16.10;36.70
24176;DHT22;12324;48.146;11.502;2024-03-25T14:53:10;15.90;38.00
24176;DHT22;12324;48.146;11.502;2024-03-25T14:55:42;16.00;38.40
24176;DHT22;12324;48.146;11.502;2024-03-25T14:58:12;15.50;39.00
24176;DHT22;12324;48.146;11.502;2024-03-25T15:00:38;15.50;39.40
24176;DHT22;12324;48.146;11.502;2024-03-25T15:03:07;15.80;41.00
24176;DHT22;12324;48.146;11.502;2024-03-25T15:05:40;16.70;40.90
24176;DHT22;12324;48.146;11.502;2024-03-25T15:08:10;16.10;39.10
24176;DHT22;12324;48.146;11.502;2024-03-25T15:10:40;15.90;38.60
24176;DHT22;12324;48.146;11.502;2024-03-25T15:13:09;16.20;37.90
24176;DHT22;12324;48.146;11.502;2024-03-25T15:15:39;15.70;39.70
24176;DHT22;12324;48.146;11.502;2024-03-25T15:18:09;15.00;40.10
24176;DHT22;12324;48.146;11.502;2024-03-25T15:20:36;15.60;41.90
24176;DHT22;12324;48.146;11.502;2024-03-25T15:23:02;15.60;39.30
24176;DHT22;12324;48.146;11.502;2024-03-25T15:25:34;15.20;40.40
24176;DHT22;12324;48.146;11.502;2024-03-25T15:28:08;16.70;38.20
24176;DHT22;12324;48.146;11.502;2024-03-25T15:30:35;16.30;37.50
24176;DHT22;12324;48.146;11.502;2024-03-25T15:33:05;14.90;40.50
24176;DHT22;12324;48.146;11.502;2024-03-25T15:35:31;15.00;42.10
24176;DHT22;12324;48.146;11.502;2024-03-25T15:37:57;14.60;41.50
24176;DHT22;12324;48.146;11.502;2024-03-25T15:40:26;14.50;42.30
24176;DHT22;12324;48.146;11.502;2024-03-25T15:42:53;14.50;43.40
24176;DHT22;12324;48.146;11.502;2024-03-25T15:45:22;14.50;42.70
24176;DHT22;12324;48.146;11.502;2024-03-25T15:47:51;13.90;42.90
24176;DHT22;12324;48.146;11.502;2024-03-25T15:50:17;13.80;43.70
24176;DHT22;12324;48.146;11.502;2024-03-25T15:53:03;14.70;43.10
24176;DHT22;12324;48.146;11.502;2024-03-25T15:55:33;13.60;44.30
24176;DHT22;12324;48.146;11.502;2024-03-25T15:58:04;13.30;45.40
24176;DHT22;12324;48.146;11.502;2024-03-25T16:00:30;13.70;45.40
24176;DHT22;12324;48.146;11.502;2024-03-25T16:03:02;13.70;45.80
24176;DHT22;12324;48.146;11.502;2024-03-25T16:05:48;13.30;45.30
24176;DHT22;12324;48.146;11.502;2024-03-25T16:08:14;13.40;46.20
24176;DHT22;12324;48.146;11.502;2024-03-25T16:10:40;13.80;46.20
24176;DHT22;12324;48.146;11.502;2024-03-25T16:13:06;14.00;46.10
24176;DHT22;12324;48.146;11.502;2024-03-25T16:15:32;14.10;45.70
24176;DHT22;12324;48.146;11.502;2024-03-25T16:18:00;14.20;46.40
24176;DHT22;12324;48.146;11.502;2024-03-25T16:20:36;14.00;47.00
24176;DHT22;12324;48.146;11.502;2024-03-25T16:23:11;14.40;49.90
24176;DHT22;12324;48.146;11.502;2024-03-25T16:25:37;13.70;45.80
24176;DHT22;12324;48.146;11.502;2024-03-25T16:28:03;13.90;46.30
24176;DHT22;12324;48.146;11.502;2024-03-25T16:30:29;13.40;47.20
24176;DHT22;12324;48.146;11.502;2024-03-25T16:32:58;13.10;47.80
24176;DHT22;12324;48.146;11.502;2024-03-25T16:35:24;12.90;47.90
24176;DHT22;12324;48.146;11.502;2024-03-25T16:37:50;13.00;49.10
24176;DHT22;12324;48.146;11.502;2024-03-25T16:40:19;13.10;49.10
24176;DHT22;12324;48.146;11.502;2024-03-25T16:42:46;12.40;50.10
24176;DHT22;12324;48.146;11.502;2024-03-25T16:45:15;12.30;51.10
24176;DHT22;12324;48.146;11.502;2024-03-25T16:47:42;12.00;52.40
24176;DHT22;12324;48.146;11.502;2024-03-25T16:50:24;11.90;51.50
24176;DHT22;12324;48.146;11.502;2024-03-25T16:52:50;11.80;52.10
24176;DHT22;12324;48.146;11.502;2024-03-25T16:55:16;11.80;52.50
24176;DHT22;12324;48.146;11.502;2024-03-25T16:57:42;11.70;52.50
24176;DHT22;12324;48.146;11.502;2024-03-25T17:00:09;11.60;52.50
24176;DHT22;12324;48.146;11.502;2024-03-25T17:07:40;11.50;53.90
24176;DHT22;12324;48.146;11.502;2024-03-25T17:10:07;11.20;54.40
24176;DHT22;12324;48.146;11.502;2024-03-25T17:12:35;11.00;55.20
24176;DHT22;12324;48.146;11.502;2024-03-25T17:15:03;10.60;56.20
24176;DHT22;12324;48.146;11.502;2024-03-25T17:17:30;10.50;56.80
24176;DHT22;12324;48.146;11.502;2024-03-25T17:20:01;10.20;57.80
24176;DHT22;12324;48.146;11.502;2024-03-25T17:22:26;10.10;58.80
24176;DHT22;12324;48.146;11.502;2024-03-25T17:24:52;9.80;59.70
24176;DHT22;12324;48.146;11.502;2024-03-25T17:29:49;9.70;61.60
24176;DHT22;12324;48.146;11.502;2024-03-25T17:32:15;9.10;65.20
24176;DHT22;12324;48.146;11.502;2024-03-25T17:46:54;9.00;67.80
24176;DHT22;12324;48.146;11.502;2024-03-25T17:49:23;8.30;75.60
24176;DHT22;12324;48.146;11.502;2024-03-25T17:51:50;8.20;77.10
24176;DHT22;12324;48.146;11.502;2024-03-25T17:56:44;8.10;80.40
24176;DHT22;12324;48.146;11.502;2024-03-25T17:59:11;7.90;84.20
24176;DHT22;12324;48.146;11.502;2024-03-25T18:01:37;7.80;86.80
24176;DHT22;12324;48.146;11.502;2024-03-25T18:04:03;7.80;88.70
24176;DHT22;12324;48.146;11.502;2024-03-25T18:11:24;7.70;89.90
24176;DHT22;12324;48.146;11.502;2024-03-25T18:13:49;7.50;92.70
24176;DHT22;12324;48.146;11.502;2024-03-25T18:16:15;7.40;93.40
24176;DHT22;12324;48.146;11.502;2024-03-25T20:18:25;7.40;93.50
24176;DHT22;12324;48.146;11.502;2024-03-25T20:20:51;5.60;99.90
24176;DHT22;12324;48.146;11.502;2024-03-25T20:23:17;5.50;99.90
24176;DHT22;12324;48.146;11.502;2024-03-25T20:25:43;5.70;99.90
24176;DHT22;12324;48.146;11.502;2024-03-25T20:28:11;5.70;99.90
